createdAt,value
2023-02-21T00:02:35.965Z,67.15
2023-02-21T00:05:21.385Z,67.43
2023-02-21T00:08:06.468Z,71.03
2023-02-21T00:10:51.673Z,67.03
2023-02-21T00:13:36.944Z,67.07
2023-02-21T00:16:21.964Z,67.97
2023-02-21T00:19:06.799Z,71.45
2023-02-21T00:21:51.988Z,69.05
2023-02-21T00:24:38.166Z,64.60
2023-02-21T00:27:23.885Z,61.88
2023-02-21T00:30:09.859Z,61.75
2023-02-21T00:32:55.058Z,57.63
2023-02-21T00:35:40.441Z,60.53
2023-02-21T00:38:26.717Z,58.30
2023-02-21T00:41:12.224Z,48.78
2023-02-21T00:43:57.546Z,49.45
2023-02-21T00:46:42.867Z,47.35
2023-02-21T00:49:27.986Z,43.63
2023-02-21T00:52:13.015Z,41.40
2023-02-21T00:54:58.195Z,44.63
2023-02-21T00:57:43.185Z,44.35
2023-02-21T01:00:34.435Z,44.15
2023-02-21T01:03:19.742Z,48.90
2023-02-21T01:06:05.106Z,43.65
2023-02-21T01:08:50.228Z,42.55
2023-02-21T01:11:37.957Z,43.00
2023-02-21T01:14:24.042Z,48.63
2023-02-21T01:17:13.450Z,47.55
2023-02-21T01:19:59.903Z,65.85
2023-02-21T01:22:45.940Z,58.78
2023-02-21T01:25:33.193Z,64.35
2023-02-21T01:28:18.448Z,67.05
2023-02-21T01:31:03.663Z,72.55
2023-02-21T01:33:56.805Z,60.95
2023-02-21T01:36:41.925Z,63.92
2023-02-21T01:39:26.963Z,63.70
2023-02-21T01:42:12.196Z,61.85
2023-02-21T01:45:00.567Z,55.15
2023-02-21T01:47:46.806Z,58.35
2023-02-21T01:50:50.610Z,53.80
2023-02-21T01:53:39.723Z,53.17
2023-02-21T01:56:25.868Z,59.08
2023-02-21T01:59:14.102Z,61.83
2023-02-21T02:02:20.511Z,59.55
2023-02-21T02:05:08.911Z,64.57
2023-02-21T02:07:55.767Z,60.13
2023-02-21T02:10:41.980Z,62.75
2023-02-21T02:13:27.484Z,61.95
2023-02-21T02:15:54.002Z,59.92
2023-02-21T02:18:37.896Z,61.22
2023-02-21T02:21:46.047Z,57.90
2023-02-21T02:24:43.529Z,55.42
2023-02-21T02:27:37.648Z,71.00
2023-02-21T02:30:44.645Z,75.95
2023-02-21T02:33:26.373Z,72.93
2023-02-21T02:36:21.163Z,64.40
2023-02-21T02:38:59.878Z,62.78
2023-02-21T02:41:44.130Z,69.60
2023-02-21T02:44:28.355Z,67.00
2023-02-21T02:46:59.303Z,66.82
2023-02-21T02:49:29.527Z,64.72
2023-02-21T02:52:03.993Z,53.80
2023-02-21T02:54:31.497Z,51.55
2023-02-21T02:56:59.323Z,55.70
2023-02-21T02:59:29.912Z,54.72
2023-02-21T03:02:12.844Z,53.08
2023-02-21T03:05:16.187Z,54.38
2023-02-21T03:08:14.352Z,52.33
2023-02-21T03:10:54.306Z,56.63
2023-02-21T03:13:36.400Z,55.50
2023-02-21T03:16:17.719Z,53.58
2023-02-21T03:18:51.114Z,58.70
2023-02-21T03:21:24.803Z,59.75
2023-02-21T03:23:54.340Z,52.40
2023-02-21T03:26:21.106Z,52.75
2023-02-21T03:28:54.952Z,52.30
2023-02-21T03:31:26.178Z,53.70
2023-02-21T03:33:53.362Z,54.65
2023-02-21T03:36:20.818Z,56.97
2023-02-21T03:38:47.846Z,54.55
2023-02-21T03:41:15.657Z,56.42
2023-02-21T03:43:42.510Z,56.05
2023-02-21T03:46:09.037Z,59.85
2023-02-21T03:48:36.211Z,64.45
2023-02-21T03:51:14.350Z,58.97
2023-02-21T03:53:41.059Z,55.30
2023-02-21T03:56:09.104Z,59.03
2023-02-21T03:58:52.939Z,60.67
2023-02-21T04:01:19.575Z,60.47
2023-02-21T04:03:46.424Z,54.80
2023-02-21T04:06:13.746Z,62.50
2023-02-21T04:08:40.502Z,62.45
2023-02-21T04:11:07.443Z,62.67
2023-02-21T04:13:35.877Z,62.10
2023-02-21T04:16:03.040Z,58.33
2023-02-21T04:18:30.475Z,64.70
2023-02-21T04:21:00.225Z,62.25
2023-02-21T04:23:26.896Z,62.80
2023-02-21T04:25:53.491Z,61.63
2023-02-21T04:28:30.229Z,57.55
2023-02-21T04:30:57.011Z,64.18
2023-02-21T04:33:23.910Z,66.15
2023-02-21T04:35:50.827Z,68.07
2023-02-21T04:38:24.167Z,65.43
2023-02-21T04:40:51.010Z,61.45
2023-02-21T04:43:17.692Z,67.75
2023-02-21T04:45:44.284Z,75.63
2023-02-21T04:48:10.840Z,66.85
2023-02-21T04:50:37.413Z,60.38
2023-02-21T04:53:04.159Z,61.25
2023-02-21T04:55:30.670Z,68.38
2023-02-21T04:57:57.188Z,62.20
2023-02-21T05:00:23.818Z,60.30
2023-02-21T05:02:50.353Z,70.05
2023-02-21T05:05:17.024Z,66.35
2023-02-21T05:07:44.185Z,69.00
2023-02-21T05:10:11.682Z,73.53
2023-02-21T05:12:39.778Z,67.60
2023-02-21T05:15:07.369Z,73.85
2023-02-21T05:17:34.032Z,69.22
2023-02-21T05:20:01.132Z,71.03
2023-02-21T05:22:27.620Z,75.00
2023-02-21T05:24:54.097Z,75.28
2023-02-21T05:27:22.239Z,72.57
2023-02-21T05:29:50.152Z,74.25
2023-02-21T05:32:18.024Z,77.00
2023-02-21T05:34:46.862Z,75.43
2023-02-21T05:37:17.655Z,74.05
2023-02-21T05:39:44.249Z,80.45
2023-02-21T05:42:11.222Z,78.57
2023-02-21T05:44:37.741Z,81.05
2023-02-21T05:47:04.378Z,81.95
2023-02-21T05:49:30.916Z,80.25
2023-02-21T05:51:57.446Z,77.97
2023-02-21T05:54:24.058Z,73.10
2023-02-21T05:56:52.200Z,77.00
2023-02-21T05:59:20.512Z,94.18
2023-02-21T06:01:50.345Z,75.88
2023-02-21T06:04:17.630Z,76.53
2023-02-21T06:06:44.613Z,73.43
2023-02-21T06:09:11.569Z,74.55
2023-02-21T06:11:40.313Z,74.53
2023-02-21T06:14:13.432Z,71.00
2023-02-21T06:16:39.984Z,73.05
2023-02-21T06:19:08.673Z,76.20
2023-02-21T06:21:36.963Z,71.97
2023-02-21T06:24:04.715Z,79.82
2023-02-21T06:26:31.346Z,69.25
2023-02-21T06:28:57.921Z,75.07
2023-02-21T06:31:25.121Z,76.13
2023-02-21T06:33:51.916Z,66.60
2023-02-21T06:36:23.948Z,67.93
2023-02-21T06:38:52.294Z,70.40
2023-02-21T06:41:21.220Z,67.95
2023-02-21T06:43:47.824Z,68.65
2023-02-21T06:46:18.961Z,67.05
2023-02-21T06:48:45.567Z,77.90
2023-02-21T06:51:14.640Z,77.10
2023-02-21T06:53:42.083Z,83.47
2023-02-21T06:56:09.211Z,77.93
2023-02-21T06:58:35.841Z,79.57
2023-02-21T07:01:02.913Z,84.38
2023-02-21T07:03:29.508Z,90.97
2023-02-21T07:05:56.009Z,78.70
2023-02-21T07:08:22.546Z,90.00
2023-02-21T07:10:49.151Z,80.20
2023-02-21T07:13:15.648Z,82.40
2023-02-21T07:15:42.188Z,86.38
2023-02-21T07:18:08.754Z,83.80
2023-02-21T07:20:35.319Z,79.93
2023-02-21T07:23:01.855Z,81.22
2023-02-21T07:25:28.396Z,82.03
2023-02-21T07:27:54.901Z,76.07
2023-02-21T07:30:21.791Z,83.68
2023-02-21T07:32:48.364Z,92.15
2023-02-21T07:35:14.921Z,88.32
2023-02-21T07:37:41.481Z,91.32
2023-02-21T07:40:08.338Z,77.45
2023-02-21T07:42:34.978Z,82.65
2023-02-21T07:45:01.858Z,90.20
2023-02-21T07:47:28.545Z,81.78
2023-02-21T07:49:55.132Z,87.88
2023-02-21T07:52:22.995Z,99.95
2023-02-21T07:54:49.791Z,99.53
2023-02-21T07:57:18.077Z,103.50
2023-02-21T07:59:44.775Z,95.70
2023-02-21T08:02:12.260Z,99.20
2023-02-21T08:04:39.324Z,95.60
2023-02-21T08:07:06.201Z,85.43
2023-02-21T08:09:33.405Z,104.10
2023-02-21T08:12:00.215Z,90.63
2023-02-21T08:14:26.893Z,89.70
2023-02-21T08:16:53.439Z,90.70
2023-02-21T08:19:20.171Z,73.03
2023-02-21T08:21:48.136Z,77.05
2023-02-21T08:24:15.776Z,74.63
2023-02-21T08:26:45.275Z,75.40
2023-02-21T08:29:13.343Z,67.43
2023-02-21T08:31:41.451Z,72.72
2023-02-21T08:34:08.476Z,67.53
2023-02-21T08:36:40.350Z,71.90
2023-02-21T08:39:08.032Z,63.00
2023-02-21T08:41:39.796Z,66.20
2023-02-21T08:44:07.618Z,52.00
2023-02-21T08:46:34.953Z,63.45
2023-02-21T08:49:03.431Z,48.67
2023-02-21T08:51:31.949Z,52.20
2023-02-21T08:53:59.386Z,51.83
2023-02-21T08:56:27.039Z,41.78
2023-02-21T08:58:54.982Z,44.10
2023-02-21T09:01:23.476Z,37.55
2023-02-21T09:03:50.550Z,35.50
2023-02-21T09:06:17.833Z,32.97
2023-02-21T09:08:44.332Z,32.47
2023-02-21T09:11:10.978Z,30.27
2023-02-21T09:13:37.510Z,30.40
2023-02-21T09:16:04.519Z,28.08
2023-02-21T09:18:32.510Z,28.35
2023-02-21T09:20:59.318Z,31.42
2023-02-21T09:23:28.301Z,30.13
2023-02-21T09:25:55.263Z,31.45
2023-02-21T09:28:22.211Z,28.60
2023-02-21T09:30:49.777Z,31.67
2023-02-21T09:33:16.706Z,32.38
2023-02-21T09:35:43.374Z,29.90
2023-02-21T09:38:10.372Z,30.85
2023-02-21T09:40:45.522Z,28.02
2023-02-21T09:43:16.437Z,32.05
2023-02-21T09:45:44.701Z,29.92
2023-02-21T09:48:15.074Z,24.92
2023-02-21T09:50:46.150Z,28.60
2023-02-21T09:53:18.796Z,27.95
2023-02-21T09:58:15.430Z,26.08
2023-02-21T10:00:44.078Z,30.40
2023-02-21T10:03:34.472Z,26.48
2023-02-21T10:06:19.822Z,24.65
2023-02-21T10:09:41.740Z,27.83
2023-02-21T10:12:22.161Z,25.33
2023-02-21T10:15:12.955Z,23.75
2023-02-21T10:18:04.709Z,23.05
2023-02-21T10:20:51.306Z,22.67
2023-02-21T10:23:30.961Z,23.20
2023-02-21T10:26:03.977Z,26.77
2023-02-21T10:28:30.582Z,26.40
2023-02-21T10:31:07.399Z,23.50
2023-02-21T10:33:38.422Z,23.92
2023-02-21T10:36:13.947Z,30.27
2023-02-21T10:38:43.595Z,33.60
2023-02-21T10:41:11.317Z,28.88
2023-02-21T10:43:48.466Z,30.00
2023-02-21T10:46:25.064Z,28.70
2023-02-21T10:48:55.311Z,26.23
2023-02-21T10:51:32.879Z,25.25
2023-02-21T10:54:19.190Z,26.17
2023-02-21T10:56:46.148Z,26.05
2023-02-21T10:59:25.402Z,24.60
2023-02-21T11:01:53.472Z,26.00
2023-02-21T11:04:19.977Z,25.48
2023-02-21T11:06:49.638Z,22.58
2023-02-21T11:09:36.556Z,24.73
2023-02-21T11:12:05.265Z,24.92
2023-02-21T11:14:33.453Z,27.52
2023-02-21T11:17:15.317Z,26.58
2023-02-21T11:19:42.959Z,21.83
2023-02-21T11:22:09.890Z,22.80
2023-02-21T11:24:58.186Z,22.85
2023-02-21T11:27:25.542Z,22.73
2023-02-21T11:29:53.940Z,21.55
2023-02-21T11:32:29.687Z,28.05
2023-02-21T11:35:08.594Z,31.90
2023-02-21T11:37:49.660Z,23.77
2023-02-21T11:40:42.533Z,22.40
2023-02-21T11:43:12.135Z,23.92
2023-02-21T11:45:44.922Z,20.67
2023-02-21T11:48:16.563Z,21.75
2023-02-21T11:50:50.191Z,22.23
2023-02-21T11:53:23.016Z,20.67
2023-02-21T11:56:34.795Z,19.13
2023-02-21T11:59:17.648Z,24.00
2023-02-21T12:04:43.575Z,20.05
2023-02-21T12:07:49.843Z,23.63
2023-02-21T12:10:42.241Z,19.77
2023-02-21T12:13:24.797Z,21.88
2023-02-21T12:16:06.643Z,22.95
2023-02-21T12:18:51.373Z,20.65
2023-02-21T12:21:47.064Z,21.00
2023-02-21T12:24:27.760Z,23.30
2023-02-21T12:27:12.449Z,23.38
2023-02-21T12:30:08.621Z,24.30
2023-02-21T12:32:38.187Z,21.65
2023-02-21T12:35:23.092Z,18.92
2023-02-21T12:38:08.455Z,21.92
2023-02-21T12:41:19.758Z,18.27
2023-02-21T12:44:08.179Z,19.58
2023-02-21T12:46:40.679Z,22.10
2023-02-21T12:51:54.308Z,19.02
2023-02-21T12:54:33.236Z,21.55
2023-02-21T12:57:05.359Z,21.77
2023-02-21T12:59:50.885Z,20.67
2023-02-21T13:02:38.700Z,19.42
2023-02-21T13:05:21.070Z,21.70
2023-02-21T13:08:20.933Z,24.00
2023-02-21T13:11:09.797Z,19.70
2023-02-21T13:13:36.867Z,20.80
2023-02-21T13:16:11.330Z,22.23
2023-02-21T13:18:44.339Z,21.48
2023-02-21T13:21:38.822Z,22.88
2023-02-21T13:24:31.046Z,21.75
2023-02-21T13:27:34.878Z,20.83
2023-02-21T13:30:12.314Z,21.85
2023-02-21T13:32:40.657Z,21.30
2023-02-21T13:35:10.007Z,19.95
2023-02-21T13:37:45.441Z,19.55
2023-02-21T13:40:39.251Z,21.02
2023-02-21T13:43:26.035Z,21.27
2023-02-21T13:45:52.896Z,21.52
2023-02-21T13:48:24.013Z,22.70
2023-02-21T13:50:53.470Z,22.45
2023-02-21T13:53:33.141Z,21.67
2023-02-21T13:55:59.867Z,23.63
2023-02-21T13:58:43.603Z,22.55
2023-02-21T14:01:39.761Z,21.38
2023-02-21T14:04:43.978Z,21.75
2023-02-21T14:07:10.594Z,21.17
2023-02-21T14:09:41.922Z,20.77
2023-02-21T14:12:12.589Z,23.10
2023-02-21T14:14:39.867Z,19.77
2023-02-21T14:17:10.416Z,20.23
2023-02-21T14:19:48.325Z,19.08
2023-02-21T14:22:25.194Z,17.33
2023-02-21T14:25:03.945Z,20.58
2023-02-21T14:27:33.972Z,19.05
2023-02-21T14:30:12.818Z,18.85
2023-02-21T14:32:46.898Z,17.15
2023-02-21T14:35:16.347Z,17.90
2023-02-21T14:37:51.575Z,16.05
2023-02-21T14:40:31.428Z,15.75
2023-02-21T14:43:30.621Z,17.38
2023-02-21T14:45:57.118Z,17.48
2023-02-21T14:48:53.285Z,15.68
2023-02-21T14:51:38.496Z,18.10
2023-02-21T14:54:19.346Z,16.02
2023-02-21T14:57:04.014Z,16.80
2023-02-21T14:59:51.798Z,15.90
2023-02-21T15:02:37.047Z,19.60
2023-02-21T15:05:09.756Z,17.08
2023-02-21T15:07:48.593Z,16.80
2023-02-21T15:10:22.008Z,14.88
2023-02-21T15:12:49.915Z,16.17
2023-02-21T15:15:42.933Z,15.95
2023-02-21T15:20:40.861Z,27.52
2023-02-21T15:23:29.421Z,21.10
2023-02-21T15:25:58.566Z,16.33
2023-02-21T15:28:33.892Z,16.90
2023-02-21T15:31:07.908Z,16.38
2023-02-21T15:33:40.852Z,17.30
2023-02-21T15:36:18.278Z,16.40
2023-02-21T15:39:05.837Z,15.35
2023-02-21T15:41:45.856Z,12.90
2023-02-21T15:44:27.321Z,14.07
2023-02-21T15:46:59.342Z,15.90
2023-02-21T15:49:30.005Z,15.80
2023-02-21T15:51:56.819Z,18.85
2023-02-21T15:54:25.337Z,15.75
2023-02-21T15:57:24.738Z,13.68
2023-02-21T16:00:18.968Z,12.63
2023-02-21T16:02:45.754Z,15.75
2023-02-21T16:05:25.948Z,18.50
2023-02-21T16:07:54.086Z,23.23
2023-02-21T16:10:23.470Z,21.25
2023-02-21T16:12:59.868Z,16.98
2023-02-21T16:15:32.844Z,16.95
2023-02-21T16:18:03.490Z,15.35
2023-02-21T16:20:35.590Z,15.18
2023-02-21T16:23:20.176Z,18.40
2023-02-21T16:26:00.519Z,16.35
2023-02-21T16:28:28.179Z,15.38
2023-02-21T16:30:58.272Z,19.38
2023-02-21T16:33:26.618Z,19.30
2023-02-21T16:35:53.537Z,17.55
2023-02-21T16:38:24.721Z,17.00
2023-02-21T16:40:58.792Z,18.52
2023-02-21T16:43:31.164Z,18.75
2023-02-21T16:45:59.235Z,19.13
2023-02-21T16:48:33.101Z,15.15
2023-02-21T16:51:04.831Z,18.83
2023-02-21T16:53:31.647Z,16.95
2023-02-21T16:55:59.945Z,16.02
2023-02-21T16:58:46.123Z,15.25
2023-02-21T17:01:33.504Z,18.95
2023-02-21T17:04:02.404Z,16.77
2023-02-21T17:06:29.175Z,15.90
2023-02-21T17:08:55.732Z,17.67
2023-02-21T17:11:22.416Z,17.35
2023-02-21T17:13:48.955Z,20.63
2023-02-21T17:16:15.557Z,20.10
2023-02-21T17:18:44.228Z,19.02
2023-02-21T17:21:11.585Z,19.90
2023-02-21T17:23:38.244Z,18.83
2023-02-21T17:26:04.883Z,18.55
2023-02-21T17:28:31.515Z,18.48
2023-02-21T17:30:58.104Z,17.17
2023-02-21T17:33:24.762Z,18.38
2023-02-21T17:35:53.313Z,18.73
2023-02-21T17:38:19.875Z,18.00
2023-02-21T17:40:46.566Z,20.08
2023-02-21T17:43:16.077Z,21.35
2023-02-21T17:45:42.670Z,18.85
2023-02-21T17:48:09.313Z,20.60
2023-02-21T17:50:35.923Z,24.90
2023-02-21T17:53:02.536Z,24.10
2023-02-21T17:55:30.131Z,23.10
2023-02-21T17:57:57.536Z,23.75
2023-02-21T18:00:26.306Z,25.13
2023-02-21T18:02:54.377Z,20.85
2023-02-21T18:05:21.183Z,24.90
2023-02-21T18:07:49.860Z,25.35
2023-02-21T18:10:18.791Z,23.67
2023-02-21T18:12:45.520Z,26.08
2023-02-21T18:15:12.380Z,23.90
2023-02-21T18:17:40.786Z,26.63
2023-02-21T18:20:09.768Z,27.48
2023-02-21T18:22:37.982Z,23.02
2023-02-21T18:25:05.501Z,22.08
2023-02-21T18:27:32.173Z,28.67
2023-02-21T18:29:58.930Z,24.25
2023-02-21T18:32:26.309Z,24.70
2023-02-21T18:34:53.034Z,26.17
2023-02-21T18:37:19.923Z,23.70
2023-02-21T18:39:46.535Z,26.23
2023-02-21T18:42:13.156Z,30.20
2023-02-21T18:44:39.799Z,26.00
2023-02-21T18:47:06.455Z,33.22
2023-02-21T18:49:38.525Z,35.92
2023-02-21T18:52:07.120Z,34.08
2023-02-21T18:54:34.164Z,35.80
2023-02-21T18:57:00.773Z,36.08
2023-02-21T18:59:27.897Z,32.00
2023-02-21T19:01:55.333Z,30.65
2023-02-21T19:04:22.337Z,33.35
2023-02-21T19:06:48.908Z,28.13
2023-02-21T19:09:15.427Z,28.92
2023-02-21T19:11:42.825Z,28.98
2023-02-21T19:14:09.496Z,30.10
2023-02-21T19:16:36.188Z,29.63
2023-02-21T19:19:05.761Z,25.33
2023-02-21T19:21:32.453Z,30.73
2023-02-21T19:23:59.304Z,30.85
2023-02-21T19:26:29.686Z,27.02
2023-02-21T19:28:56.668Z,31.33
2023-02-21T19:31:23.511Z,31.48
2023-02-21T19:33:50.612Z,31.23
2023-02-21T19:36:17.201Z,29.73
2023-02-21T19:38:43.842Z,28.85
2023-02-21T19:41:10.577Z,29.25
2023-02-21T19:43:37.706Z,27.77
2023-02-21T19:46:04.566Z,26.40
2023-02-21T19:48:31.237Z,28.70
2023-02-21T19:50:57.814Z,27.30
2023-02-21T19:53:24.527Z,28.67
2023-02-21T19:55:51.027Z,24.13
2023-02-21T19:58:19.931Z,29.42
2023-02-21T20:00:47.044Z,28.23
2023-02-21T20:03:13.863Z,27.63
2023-02-21T20:05:40.515Z,29.92
2023-02-21T20:08:07.140Z,28.98
2023-02-21T20:10:33.905Z,23.23
2023-02-21T20:13:02.362Z,24.90
2023-02-21T20:15:28.998Z,25.75
2023-02-21T20:17:55.710Z,24.13
2023-02-21T20:20:22.259Z,24.08
2023-02-21T20:22:48.788Z,33.38
2023-02-21T20:25:15.443Z,26.92
2023-02-21T20:27:42.064Z,29.45
2023-02-21T20:30:09.594Z,29.70
2023-02-21T20:32:36.305Z,24.73
2023-02-21T20:35:03.755Z,30.20
2023-02-21T20:37:32.430Z,30.50
2023-02-21T20:39:59.726Z,31.00
2023-02-21T20:42:27.469Z,34.75
2023-02-21T20:44:55.069Z,35.47
2023-02-21T20:47:21.732Z,27.92
2023-02-21T20:49:48.340Z,33.60
2023-02-21T20:52:16.348Z,29.23
2023-02-21T20:54:43.240Z,30.80
2023-02-21T20:57:09.928Z,27.20
2023-02-21T20:59:38.747Z,27.92
2023-02-21T21:02:06.357Z,34.13
2023-02-21T21:04:35.931Z,29.48
2023-02-21T21:07:06.508Z,30.45
2023-02-21T21:09:37.503Z,33.58
2023-02-21T21:12:10.794Z,31.55
2023-02-21T21:14:41.499Z,31.60
2023-02-21T21:17:08.479Z,31.38
2023-02-21T21:19:35.142Z,27.55
2023-02-21T21:22:04.995Z,31.05
2023-02-21T21:24:32.099Z,25.80
2023-02-21T21:27:06.274Z,28.05
2023-02-21T21:29:36.335Z,29.35
2023-02-21T21:32:05.330Z,25.33
2023-02-21T21:34:33.130Z,28.52
2023-02-21T21:37:02.415Z,30.23
2023-02-21T21:39:29.016Z,27.13
2023-02-21T21:42:08.526Z,29.65
2023-02-21T21:44:43.797Z,27.48
2023-02-21T21:47:10.335Z,27.48
2023-02-21T21:49:37.271Z,30.10
2023-02-21T21:52:04.657Z,27.40
2023-02-21T21:54:35.750Z,26.77
2023-02-21T21:57:04.418Z,29.10
2023-02-21T21:59:32.436Z,28.58
2023-02-21T22:01:59.508Z,28.17
2023-02-21T22:04:27.154Z,29.45
2023-02-21T22:06:55.472Z,29.58
2023-02-21T22:09:22.964Z,27.15
2023-02-21T22:11:50.081Z,25.13
2023-02-21T22:14:18.402Z,24.45
2023-02-21T22:16:47.845Z,27.55
2023-02-21T22:19:15.887Z,24.60
2023-02-21T22:21:45.811Z,25.98
2023-02-21T22:24:19.360Z,26.25
2023-02-21T22:26:46.783Z,26.30
2023-02-21T22:29:15.630Z,22.60
2023-02-21T22:31:43.954Z,25.08
2023-02-21T22:34:17.545Z,25.58
2023-02-21T22:36:46.554Z,27.02
2023-02-21T22:39:13.226Z,26.85
2023-02-21T22:41:39.896Z,29.20
2023-02-21T22:44:06.790Z,28.60
2023-02-21T22:46:50.471Z,27.15
2023-02-21T22:49:17.139Z,30.83
2023-02-21T22:51:44.104Z,29.63
2023-02-21T22:54:14.356Z,35.22
2023-02-21T22:56:50.629Z,29.95
2023-02-21T22:59:24.245Z,31.85
2023-02-21T23:01:50.949Z,35.28
2023-02-21T23:04:25.306Z,31.33
2023-02-21T23:06:59.643Z,35.85
2023-02-21T23:09:28.368Z,31.27
2023-02-21T23:11:58.374Z,32.58
2023-02-21T23:14:26.297Z,33.13
2023-02-21T23:16:57.328Z,34.35
2023-02-21T23:19:25.523Z,31.60
2023-02-21T23:21:53.783Z,34.42
2023-02-21T23:24:22.080Z,32.35
2023-02-21T23:26:50.316Z,31.67
2023-02-21T23:29:24.137Z,34.22
2023-02-21T23:31:52.237Z,37.53
2023-02-21T23:34:19.730Z,35.83
2023-02-21T23:36:46.426Z,35.42
2023-02-21T23:39:15.005Z,35.78
2023-02-21T23:41:43.429Z,38.33
2023-02-21T23:44:12.615Z,41.03
2023-02-21T23:46:42.235Z,37.40
2023-02-21T23:49:11.203Z,39.00
2023-02-21T23:51:38.402Z,37.45
2023-02-21T23:54:07.051Z,38.33
2023-02-21T23:56:35.513Z,39.67
2023-02-21T23:59:06.051Z,43.60
